Aviation Digital Data Service (ADDS)

Output produced by METARs form (1155 UTC 20 September 2014)
found at http://aviationweather.gov/adds/metars/
 
KFRG 201153Z 00000KT 10SM CLR 14/12 A3031 RMK AO2 SLP264 T01440117 10144 20106 58006
KISP 201056Z 11004KT 10SM FEW028 SCT070 12/10 A3030 RMK AO2 SLP261 T01170100
KISP 201134Z 2012/2112 17004KT P6SM OVC025 
     FM201400 17010KT P6SM BKN035 
     FM201800 17013G19KT P6SM SCT040 
     FM202200 17009KT P6SM BKN040 
     FM210300 13007KT P6SM BKN025 
     FM210800 13005KT 5SM BR BKN015
       
KJFK 201151Z 07004KT 10SM SCT032 BKN070 15/12 A3031 RMK AO2 SLP264 T01500117 10167 20122 58006
KJFK 201134Z 2012/2118 15007KT P6SM BKN025 
     FM201500 17012KT P6SM BKN035 
     FM201800 17016KT P6SM SCT040 
     FM202300 17012KT P6SM BKN040 
     FM210300 13010KT P6SM BKN025 
     FM210800 10007KT 6SM BR BKN015 
     FM211500 18007KT P6SM SCT025 BKN035
       
KBDR 201152Z 15010KT 10SM CLR 18/13 A3031 RMK AO2 SLP263 T01780128 10178 20133 58008
KBDR 201138Z 15009KT 10SM FEW030 17/13 A3032 RMK AO2 T01720128
KBDR 201122Z 14007KT 10SM SCT029 BKN036 17/12 A3032 RMK AO2 CIG 029 R29 SE T01670122
KBDR 201103Z 14007KT 10SM BKN028 BKN037 BKN080 17/12 A3033 RMK AO2 T01720122
KBDR 201134Z 2012/2112 15006KT P6SM OVC025 
     FM201400 16009KT P6SM BKN035 
     FM201900 18012G18KT P6SM SCT040 
     FM210000 17008KT P6SM BKN040 
     FM210300 13007KT P6SM BKN025 
     FM210800 13005KT 6SM BR BKN015